createdAt,value
2022-08-31T00:00:15.333Z,22.61
2022-08-31T00:03:01.788Z,22.65
2022-08-31T00:05:29.394Z,22.64
2022-08-31T00:07:57.000Z,22.69
2022-08-31T00:10:31.933Z,22.67
2022-08-31T00:13:01.451Z,22.81
2022-08-31T00:15:30.698Z,22.73
2022-08-31T00:17:59.005Z,22.69
2022-08-31T00:20:33.250Z,22.58
2022-08-31T00:23:04.775Z,22.83
2022-08-31T00:25:34.019Z,22.91
2022-08-31T00:28:02.050Z,22.81
2022-08-31T00:30:30.457Z,22.93
2022-08-31T00:32:58.709Z,22.96
2022-08-31T00:35:28.474Z,22.87
2022-08-31T00:37:56.107Z,22.90
2022-08-31T00:40:24.167Z,22.67
2022-08-31T00:42:51.719Z,22.50
2022-08-31T00:45:19.579Z,22.67
2022-08-31T00:47:47.266Z,22.70
2022-08-31T00:50:17.649Z,22.73
2022-08-31T00:52:49.962Z,22.68
2022-08-31T00:55:34.162Z,22.71
2022-08-31T00:58:05.305Z,22.83
2022-08-31T01:00:33.125Z,22.80
2022-08-31T01:03:02.786Z,22.80
2022-08-31T01:05:31.680Z,22.64
2022-08-31T01:08:01.311Z,22.58
2022-08-31T01:10:34.227Z,22.89
2022-08-31T01:13:02.549Z,22.90
2022-08-31T01:15:31.272Z,22.93
2022-08-31T01:18:02.376Z,23.05
2022-08-31T01:20:48.781Z,23.06
2022-08-31T01:23:30.266Z,23.02
2022-08-31T01:25:59.357Z,22.81
2022-08-31T01:28:27.075Z,22.60
2022-08-31T01:31:00.095Z,22.62
2022-08-31T01:33:29.198Z,22.56
2022-08-31T01:35:57.522Z,22.58
2022-08-31T01:38:25.780Z,22.54
2022-08-31T01:40:59.254Z,22.54
2022-08-31T01:43:26.776Z,22.44
2022-08-31T01:45:55.113Z,22.35
2022-08-31T01:48:23.913Z,22.44
2022-08-31T01:50:52.189Z,22.47
2022-08-31T01:53:19.928Z,22.59
2022-08-31T01:55:47.581Z,22.55
2022-08-31T01:58:15.560Z,22.48
2022-08-31T02:00:58.148Z,22.87
2022-08-31T02:03:25.765Z,22.58
2022-08-31T02:08:19.563Z,22.60
2022-08-31T02:10:47.825Z,22.47
2022-08-31T02:13:15.470Z,22.61
2022-08-31T02:15:43.064Z,22.62
2022-08-31T02:18:12.121Z,22.61
2022-08-31T02:20:39.984Z,22.54
2022-08-31T02:23:07.545Z,22.54
2022-08-31T02:25:35.131Z,22.68
2022-08-31T02:28:03.832Z,22.81
2022-08-31T02:30:31.472Z,22.80
2022-08-31T02:32:58.985Z,22.79
2022-08-31T02:35:27.353Z,22.76
2022-08-31T02:37:55.266Z,22.78
2022-08-31T02:40:22.870Z,22.88
2022-08-31T02:42:52.702Z,22.90
2022-08-31T02:45:25.153Z,22.95
2022-08-31T02:47:56.261Z,23.04
2022-08-31T02:50:30.023Z,22.99
2022-08-31T02:52:59.085Z,22.95
2022-08-31T02:55:29.170Z,23.03
2022-08-31T02:57:56.679Z,22.87
2022-08-31T03:00:25.067Z,22.92
2022-08-31T03:02:52.604Z,23.03
2022-08-31T03:05:21.074Z,22.90
2022-08-31T03:07:50.135Z,22.87
2022-08-31T03:10:21.420Z,22.81
2022-08-31T03:12:50.745Z,23.03
2022-08-31T03:15:20.943Z,23.26
2022-08-31T03:17:48.852Z,23.16
2022-08-31T03:20:19.341Z,23.26
2022-08-31T03:22:47.019Z,23.34
2022-08-31T03:25:16.664Z,23.51
2022-08-31T03:27:46.235Z,23.68
2022-08-31T03:30:17.825Z,23.83
2022-08-31T03:32:53.167Z,24.09
2022-08-31T03:35:24.981Z,24.25
2022-08-31T03:37:52.793Z,24.36
2022-08-31T03:40:20.436Z,24.43
2022-08-31T03:42:48.063Z,24.45
2022-08-31T03:45:16.413Z,24.44
2022-08-31T03:47:44.882Z,24.53
2022-08-31T03:50:16.269Z,24.66
2022-08-31T03:53:12.991Z,24.81
2022-08-31T03:55:42.590Z,24.97
2022-08-31T03:58:12.328Z,25.14
2022-08-31T04:00:40.626Z,25.25
2022-08-31T04:03:21.350Z,25.36
2022-08-31T04:06:12.220Z,25.51
2022-08-31T04:09:02.816Z,25.60
2022-08-31T04:11:52.098Z,25.75
2022-08-31T04:14:38.895Z,25.78
2022-08-31T04:17:41.524Z,26.21
2022-08-31T04:20:42.444Z,26.70
2022-08-31T04:23:10.188Z,27.33
2022-08-31T04:25:43.215Z,27.64
2022-08-31T04:28:11.809Z,27.62
2022-08-31T04:30:43.430Z,27.81
2022-08-31T04:33:15.732Z,28.05
2022-08-31T04:35:44.462Z,28.17
2022-08-31T04:38:12.499Z,28.45
2022-08-31T04:40:44.130Z,28.61
2022-08-31T04:43:12.084Z,29.12
2022-08-31T04:45:44.596Z,29.57
2022-08-31T04:48:15.063Z,30.00
2022-08-31T04:50:43.652Z,30.09
2022-08-31T04:53:11.841Z,30.37
2022-08-31T04:55:41.463Z,30.73
2022-08-31T04:58:13.998Z,31.19
2022-08-31T05:00:44.915Z,31.27
2022-08-31T05:03:30.964Z,31.99
2022-08-31T05:05:58.585Z,32.37
2022-08-31T05:08:28.110Z,32.71
2022-08-31T05:10:55.790Z,32.80
2022-08-31T05:13:23.478Z,33.10
2022-08-31T05:15:54.888Z,33.46
2022-08-31T05:18:22.760Z,33.73
2022-08-31T05:20:56.242Z,34.01
2022-08-31T05:23:24.201Z,34.21
2022-08-31T05:25:51.880Z,34.72
2022-08-31T05:28:23.832Z,35.34
2022-08-31T05:30:51.606Z,35.51
2022-08-31T05:33:31.274Z,35.47
2022-08-31T05:36:02.334Z,35.56
2022-08-31T05:38:29.929Z,35.53
2022-08-31T05:41:00.775Z,35.47
2022-08-31T05:43:29.561Z,35.30
2022-08-31T05:45:57.775Z,35.42
2022-08-31T05:48:30.147Z,35.65
2022-08-31T05:51:02.251Z,35.85
2022-08-31T05:53:29.833Z,36.12
2022-08-31T05:56:03.078Z,36.01
2022-08-31T05:58:32.024Z,36.07
2022-08-31T06:01:00.454Z,36.00
2022-08-31T06:03:51.898Z,36.59
2022-08-31T06:06:19.537Z,37.09
2022-08-31T06:08:52.031Z,37.57
2022-08-31T06:11:22.929Z,37.84
2022-08-31T06:13:54.790Z,38.08
2022-08-31T06:16:23.322Z,38.23
2022-08-31T06:18:51.548Z,38.58
2022-08-31T06:21:22.189Z,38.64
2022-08-31T06:23:51.841Z,38.47
2022-08-31T06:26:23.892Z,38.18
2022-08-31T06:28:54.046Z,37.99
2022-08-31T06:31:30.162Z,37.82
2022-08-31T06:33:58.596Z,37.83
2022-08-31T06:36:52.406Z,37.68
2022-08-31T06:39:39.431Z,37.54
2022-08-31T06:42:09.740Z,37.30
2022-08-31T06:44:56.221Z,37.30
2022-08-31T06:47:36.658Z,37.46
2022-08-31T06:50:06.263Z,37.50
2022-08-31T06:52:38.666Z,37.59
2022-08-31T06:55:20.886Z,37.69
2022-08-31T06:58:06.758Z,37.71
2022-08-31T07:00:52.900Z,37.74
2022-08-31T07:03:49.213Z,37.75
2022-08-31T07:06:22.875Z,37.76
2022-08-31T07:08:53.668Z,37.93
2022-08-31T07:11:25.323Z,37.61
2022-08-31T07:13:54.870Z,37.50
2022-08-31T07:16:24.847Z,37.75
2022-08-31T07:18:54.966Z,38.19
2022-08-31T07:21:25.762Z,38.58
2022-08-31T07:23:55.162Z,38.97
2022-08-31T07:26:28.041Z,38.99
2022-08-31T07:28:58.195Z,39.06
2022-08-31T07:31:37.841Z,39.16
2022-08-31T07:34:08.315Z,39.07
2022-08-31T07:37:04.827Z,39.06
2022-08-31T07:39:52.317Z,38.93
2022-08-31T07:42:25.485Z,38.93
2022-08-31T07:44:53.923Z,38.96
2022-08-31T07:47:22.956Z,38.89
2022-08-31T07:49:54.028Z,38.78
2022-08-31T07:52:35.915Z,38.64
2022-08-31T07:55:25.244Z,38.59
2022-08-31T07:57:56.082Z,38.64
2022-08-31T08:00:29.769Z,38.69
2022-08-31T08:03:07.465Z,38.61
2022-08-31T08:05:55.741Z,38.61
2022-08-31T08:09:12.747Z,38.53
2022-08-31T08:11:55.520Z,38.58
2022-08-31T08:14:59.398Z,38.68
2022-08-31T08:17:38.350Z,38.51
2022-08-31T08:20:13.774Z,38.50
2022-08-31T08:22:55.205Z,39.20
2022-08-31T08:25:35.141Z,38.45
2022-08-31T08:31:07.685Z,37.81
2022-08-31T08:33:36.582Z,37.62
2022-08-31T08:36:08.111Z,37.79
2022-08-31T08:38:42.677Z,37.54
2022-08-31T08:41:20.592Z,37.53
2022-08-31T08:43:57.430Z,37.25
2022-08-31T08:46:51.399Z,37.44
2022-08-31T08:49:29.713Z,37.16
2022-08-31T08:52:38.253Z,37.30
2022-08-31T08:55:10.101Z,36.76
2022-08-31T08:57:42.810Z,36.54
2022-08-31T09:00:25.175Z,36.37
2022-08-31T09:03:23.936Z,36.17
2022-08-31T09:06:12.808Z,35.93
2022-08-31T09:09:08.987Z,36.06
2022-08-31T09:12:01.534Z,36.01
2022-08-31T09:14:38.532Z,35.53
2022-08-31T09:17:36.945Z,35.64
2022-08-31T09:20:07.831Z,35.27
2022-08-31T09:22:47.287Z,35.27
2022-08-31T09:25:33.672Z,34.97
2022-08-31T09:28:36.217Z,35.04
2022-08-31T09:31:04.304Z,34.64
2022-08-31T09:33:51.332Z,34.71
2022-08-31T09:36:23.124Z,34.47
2022-08-31T09:38:50.715Z,34.34
2022-08-31T09:41:21.594Z,34.41
2022-08-31T09:43:50.929Z,34.28
2022-08-31T09:46:36.544Z,34.46
2022-08-31T09:49:06.648Z,34.01
2022-08-31T09:51:37.010Z,34.14
2022-08-31T09:54:47.492Z,34.22
2022-08-31T09:57:15.348Z,33.95
2022-08-31T09:59:49.608Z,33.92
2022-08-31T10:02:23.347Z,33.76
2022-08-31T10:04:56.915Z,33.70
2022-08-31T10:07:30.448Z,33.72
2022-08-31T10:10:28.170Z,33.73
2022-08-31T10:13:10.553Z,33.58
2022-08-31T10:15:48.790Z,33.64
2022-08-31T10:18:24.320Z,33.47
2022-08-31T10:21:08.578Z,33.45
2022-08-31T10:23:39.283Z,33.26
2022-08-31T10:26:18.382Z,33.27
2022-08-31T10:28:52.114Z,33.23
2022-08-31T10:31:24.553Z,33.21
2022-08-31T10:34:17.595Z,33.29
2022-08-31T10:36:47.990Z,33.10
2022-08-31T10:39:54.410Z,33.27
2022-08-31T10:42:32.723Z,33.21
2022-08-31T10:45:13.299Z,33.11
2022-08-31T10:47:49.383Z,33.25
2022-08-31T10:50:28.921Z,33.17
2022-08-31T10:53:02.525Z,32.68
2022-08-31T10:55:33.874Z,32.76
2022-08-31T10:58:07.253Z,32.68
2022-08-31T11:00:56.841Z,32.90
2022-08-31T11:04:11.431Z,32.85
2022-08-31T11:06:51.060Z,32.49
2022-08-31T11:09:39.827Z,32.59
2022-08-31T11:12:12.076Z,32.41
2022-08-31T11:15:10.377Z,32.57
2022-08-31T11:17:50.348Z,32.35
2022-08-31T11:20:47.603Z,32.28
2022-08-31T11:23:35.431Z,32.41
2022-08-31T11:26:48.180Z,32.38
2022-08-31T11:29:46.587Z,32.31
2022-08-31T11:32:20.473Z,31.84
2022-08-31T11:34:55.803Z,31.81
2022-08-31T11:37:57.435Z,31.93
2022-08-31T11:40:43.064Z,31.85
2022-08-31T11:43:32.702Z,31.55
2022-08-31T11:46:28.075Z,31.04
2022-08-31T11:48:55.652Z,30.11
2022-08-31T11:51:41.750Z,30.22
2022-08-31T11:54:42.213Z,30.14
2022-08-31T11:57:15.988Z,29.32
2022-08-31T11:59:48.760Z,29.13
2022-08-31T12:02:23.140Z,29.15
2022-08-31T12:04:53.795Z,28.69
2022-08-31T12:07:36.760Z,28.55
2022-08-31T12:10:27.629Z,28.89
2022-08-31T12:12:55.519Z,28.34
2022-08-31T12:15:29.317Z,28.20
2022-08-31T12:18:34.740Z,28.41
2022-08-31T12:21:25.945Z,28.02
2022-08-31T12:24:24.082Z,28.27
2022-08-31T12:27:16.644Z,28.26
2022-08-31T12:29:44.637Z,27.91
2022-08-31T12:32:37.757Z,28.28
2022-08-31T12:35:27.390Z,28.29
2022-08-31T12:38:22.285Z,28.34
2022-08-31T12:40:55.123Z,28.10
2022-08-31T12:43:25.024Z,28.57
2022-08-31T12:45:58.699Z,27.93
2022-08-31T12:48:26.296Z,27.86
2022-08-31T12:51:03.140Z,27.93
2022-08-31T12:53:45.727Z,27.91
2022-08-31T12:56:23.467Z,28.28
2022-08-31T12:59:08.597Z,27.93
2022-08-31T13:01:42.345Z,27.91
2022-08-31T13:04:11.395Z,27.82
2022-08-31T13:06:42.214Z,27.81
2022-08-31T13:09:24.857Z,28.03
2022-08-31T13:11:53.198Z,28.32
2022-08-31T13:14:24.923Z,27.88
2022-08-31T13:17:12.653Z,27.76
2022-08-31T13:19:55.561Z,27.76
2022-08-31T13:22:40.473Z,27.62
2022-08-31T13:25:36.778Z,27.64
2022-08-31T13:28:19.673Z,27.39
2022-08-31T13:31:06.395Z,27.45
2022-08-31T13:33:36.972Z,27.22
2022-08-31T13:36:16.330Z,27.24
2022-08-31T13:38:51.162Z,27.20
2022-08-31T13:41:41.076Z,27.24
2022-08-31T13:44:13.370Z,27.05
2022-08-31T13:47:00.459Z,27.27
2022-08-31T13:49:35.729Z,27.15
2022-08-31T13:52:15.726Z,27.17
2022-08-31T13:54:43.552Z,27.00
2022-08-31T13:57:32.901Z,27.04
2022-08-31T14:00:33.488Z,27.40
2022-08-31T14:03:32.236Z,27.40
2022-08-31T14:06:24.288Z,27.43
2022-08-31T14:09:03.732Z,27.27
2022-08-31T14:11:33.975Z,27.17
2022-08-31T14:14:08.871Z,27.27
2022-08-31T14:16:40.216Z,27.13
2022-08-31T14:19:12.326Z,27.06
2022-08-31T14:21:42.403Z,26.94
2022-08-31T14:24:12.515Z,26.93
2022-08-31T14:26:42.948Z,26.90
2022-08-31T14:29:16.263Z,26.97
2022-08-31T14:31:48.861Z,26.81
2022-08-31T14:34:26.828Z,27.00
2022-08-31T14:37:11.662Z,26.92
2022-08-31T14:39:42.120Z,26.76
2022-08-31T14:42:17.453Z,26.77
2022-08-31T14:44:56.907Z,26.77
2022-08-31T14:47:30.508Z,26.57
2022-08-31T14:50:06.046Z,26.47
2022-08-31T14:52:39.945Z,26.62
2022-08-31T14:55:11.456Z,26.44
2022-08-31T14:57:43.337Z,26.49
2022-08-31T15:00:22.144Z,26.31
2022-08-31T15:02:53.713Z,26.29
2022-08-31T15:05:25.000Z,26.36
2022-08-31T15:07:54.424Z,26.40
2022-08-31T15:10:26.080Z,26.36
2022-08-31T15:12:54.477Z,26.28
2022-08-31T15:15:22.002Z,26.24
2022-08-31T15:17:51.944Z,26.28
2022-08-31T15:20:22.999Z,26.26
2022-08-31T15:22:51.126Z,26.23
2022-08-31T15:25:20.136Z,26.23
2022-08-31T15:27:47.758Z,26.24
2022-08-31T15:30:19.898Z,26.26
2022-08-31T15:32:48.318Z,26.21
2022-08-31T15:35:20.229Z,26.14
2022-08-31T15:37:57.385Z,26.29
2022-08-31T15:40:36.586Z,26.28
2022-08-31T15:43:16.078Z,26.20
2022-08-31T15:45:43.643Z,26.17
2022-08-31T15:48:29.825Z,26.16
2022-08-31T15:51:06.429Z,26.13
2022-08-31T15:53:35.721Z,26.11
2022-08-31T15:56:08.502Z,26.09
2022-08-31T15:58:39.260Z,26.05
2022-08-31T16:01:14.232Z,26.09
2022-08-31T16:03:42.669Z,26.01
2022-08-31T16:06:11.551Z,25.95
2022-08-31T16:08:41.458Z,25.94
2022-08-31T16:11:11.157Z,25.89
2022-08-31T16:14:15.449Z,25.94
2022-08-31T16:16:46.394Z,25.85
2022-08-31T16:19:28.051Z,25.78
2022-08-31T16:22:03.278Z,25.76
2022-08-31T16:24:36.290Z,25.67
2022-08-31T16:27:06.640Z,25.72
2022-08-31T16:29:34.679Z,25.63
2022-08-31T16:32:02.711Z,25.58
2022-08-31T16:34:31.811Z,25.45
2022-08-31T16:37:00.136Z,25.37
2022-08-31T16:39:28.301Z,25.31
2022-08-31T16:41:56.013Z,25.26
2022-08-31T16:44:23.478Z,25.14
2022-08-31T16:46:59.947Z,25.12
2022-08-31T16:49:34.277Z,25.04
2022-08-31T16:52:06.172Z,25.00
2022-08-31T16:54:34.616Z,24.96
2022-08-31T16:57:02.050Z,24.89
2022-08-31T16:59:30.338Z,24.86
2022-08-31T17:01:58.223Z,24.79
2022-08-31T17:07:15.829Z,24.83
2022-08-31T17:09:43.623Z,24.70
2022-08-31T17:12:14.577Z,24.65
2022-08-31T17:14:48.572Z,24.75
2022-08-31T17:17:20.070Z,24.61
2022-08-31T17:19:48.307Z,24.52
2022-08-31T17:22:23.497Z,24.51
2022-08-31T17:24:55.355Z,24.44
2022-08-31T17:27:23.011Z,24.39
2022-08-31T17:29:52.786Z,24.40
2022-08-31T17:32:23.613Z,24.39
2022-08-31T17:34:52.055Z,24.34
2022-08-31T17:37:28.049Z,24.36
2022-08-31T17:39:56.214Z,24.21
2022-08-31T17:42:27.350Z,24.17
2022-08-31T17:44:57.527Z,24.07
2022-08-31T17:47:25.833Z,23.98
2022-08-31T17:49:54.408Z,23.93
2022-08-31T17:52:23.413Z,23.91
2022-08-31T17:54:52.494Z,23.88
2022-08-31T17:57:25.435Z,23.89
2022-08-31T17:59:55.177Z,23.88
2022-08-31T18:02:27.875Z,23.90
2022-08-31T18:04:55.515Z,23.87
2022-08-31T18:07:23.308Z,23.83
2022-08-31T18:09:51.345Z,23.80
2022-08-31T18:12:27.684Z,23.78
2022-08-31T18:14:58.233Z,23.75
2022-08-31T18:17:26.862Z,23.73
2022-08-31T18:19:55.581Z,23.73
2022-08-31T18:22:23.065Z,23.70
2022-08-31T18:24:50.646Z,23.68
2022-08-31T18:27:18.380Z,23.67
2022-08-31T18:29:46.137Z,23.63
2022-08-31T18:32:14.539Z,23.59
2022-08-31T18:34:47.683Z,23.59
2022-08-31T18:37:22.327Z,23.51
2022-08-31T18:40:08.836Z,23.49
2022-08-31T18:42:57.600Z,23.49
2022-08-31T18:45:27.455Z,23.52
2022-08-31T18:50:47.523Z,23.46
2022-08-31T18:53:28.497Z,23.47
2022-08-31T18:56:17.186Z,23.69
2022-08-31T18:58:44.946Z,23.36
2022-08-31T19:01:15.718Z,23.32
2022-08-31T19:03:43.823Z,23.22
2022-08-31T19:06:20.401Z,23.41
2022-08-31T19:08:49.112Z,23.25
2022-08-31T19:11:19.366Z,23.22
2022-08-31T19:13:51.281Z,23.24
2022-08-31T19:16:21.319Z,23.30
2022-08-31T19:18:49.734Z,23.21
2022-08-31T19:21:26.555Z,23.32
2022-08-31T19:23:55.104Z,23.18
2022-08-31T19:26:41.934Z,23.42
2022-08-31T19:29:14.369Z,23.22
2022-08-31T19:31:45.031Z,23.22
2022-08-31T19:34:15.987Z,23.13
2022-08-31T19:36:45.665Z,23.13
2022-08-31T19:39:18.590Z,23.14
2022-08-31T19:41:53.996Z,23.29
2022-08-31T19:44:22.517Z,23.09
2022-08-31T19:46:53.684Z,23.04
2022-08-31T19:49:23.095Z,23.03
2022-08-31T19:51:56.332Z,23.04
2022-08-31T19:54:26.343Z,23.00
2022-08-31T19:56:54.809Z,23.01
2022-08-31T19:59:23.981Z,22.94
2022-08-31T20:01:53.435Z,22.97
2022-08-31T20:04:23.886Z,22.97
2022-08-31T20:06:52.270Z,22.90
2022-08-31T20:09:22.725Z,22.92
2022-08-31T20:11:51.799Z,22.96
2022-08-31T20:14:20.271Z,22.89
2022-08-31T20:16:48.597Z,22.86
2022-08-31T20:19:25.207Z,22.98
2022-08-31T20:21:54.883Z,22.94
2022-08-31T20:24:25.717Z,22.93
2022-08-31T20:27:09.000Z,22.83
2022-08-31T20:29:39.050Z,22.88
2022-08-31T20:32:08.256Z,22.79
2022-08-31T20:34:37.579Z,22.78
2022-08-31T20:37:05.138Z,22.76
2022-08-31T20:39:33.278Z,22.72
2022-08-31T20:42:01.686Z,22.73
2022-08-31T20:44:33.912Z,22.77
2022-08-31T20:47:26.349Z,22.82
2022-08-31T20:49:58.243Z,23.29
2022-08-31T20:52:29.167Z,22.89
2022-08-31T20:55:02.367Z,22.78
2022-08-31T20:57:34.365Z,22.75
2022-08-31T21:00:05.541Z,22.67
2022-08-31T21:02:35.807Z,22.58
2022-08-31T21:05:36.548Z,22.56
2022-08-31T21:07:57.549Z,22.48
2022-08-31T21:10:36.314Z,22.40
2022-08-31T21:13:12.754Z,22.51
2022-08-31T21:15:45.705Z,22.48
2022-08-31T21:18:18.308Z,22.33
2022-08-31T21:20:46.830Z,22.28
2022-08-31T21:23:14.339Z,22.22
2022-08-31T21:25:45.365Z,22.19
2022-08-31T21:28:15.907Z,22.17
2022-08-31T21:30:45.417Z,21.99
2022-08-31T21:33:13.025Z,21.90
2022-08-31T21:35:40.467Z,21.85
2022-08-31T21:38:09.754Z,21.88
2022-08-31T21:40:37.276Z,21.95
2022-08-31T21:43:05.291Z,21.97
2022-08-31T21:45:32.797Z,21.96
2022-08-31T21:48:00.290Z,21.96
2022-08-31T21:50:28.736Z,21.96
2022-08-31T21:53:00.282Z,21.89
2022-08-31T21:55:28.231Z,21.98
2022-08-31T21:57:55.708Z,22.00
2022-08-31T22:00:29.656Z,21.94
2022-08-31T22:02:57.450Z,21.97
2022-08-31T22:05:24.924Z,21.95
2022-08-31T22:07:52.366Z,21.98
2022-08-31T22:10:20.648Z,21.92
2022-08-31T22:12:48.074Z,21.94
2022-08-31T22:15:17.884Z,21.96
2022-08-31T22:18:11.366Z,21.96
2022-08-31T22:20:38.872Z,22.04
2022-08-31T22:23:09.205Z,21.93
2022-08-31T22:25:37.790Z,21.91
2022-08-31T22:28:10.391Z,21.93
2022-08-31T22:30:38.302Z,21.93
2022-08-31T22:33:05.709Z,21.92
2022-08-31T22:35:39.239Z,22.00
2022-08-31T22:38:07.507Z,21.87
2022-08-31T22:40:38.192Z,21.98
2022-08-31T22:43:05.871Z,21.81
2022-08-31T22:45:33.658Z,21.79
2022-08-31T22:48:01.199Z,21.80
2022-08-31T22:50:28.784Z,21.81
2022-08-31T22:52:56.306Z,21.67
2022-08-31T22:55:23.697Z,21.67
2022-08-31T22:57:51.103Z,21.65
2022-08-31T23:00:24.185Z,21.57
2022-08-31T23:02:52.996Z,21.59
2022-08-31T23:05:20.927Z,21.54
2022-08-31T23:07:49.070Z,21.59
2022-08-31T23:10:19.004Z,21.60
2022-08-31T23:12:51.483Z,21.55
2022-08-31T23:15:19.378Z,21.51
2022-08-31T23:17:50.248Z,21.58
2022-08-31T23:20:21.296Z,21.57
2022-08-31T23:22:49.987Z,21.50
2022-08-31T23:25:20.601Z,21.53
2022-08-31T23:27:49.277Z,21.45
2022-08-31T23:30:20.627Z,21.49
2022-08-31T23:32:48.206Z,21.40
2022-08-31T23:35:18.084Z,21.43
2022-08-31T23:37:46.567Z,21.34
2022-08-31T23:40:16.268Z,21.35
2022-08-31T23:42:43.838Z,21.39
2022-08-31T23:45:12.926Z,21.33
2022-08-31T23:47:40.550Z,21.36
2022-08-31T23:50:10.352Z,21.33
2022-08-31T23:52:41.818Z,21.30
2022-08-31T23:55:11.268Z,21.37
2022-08-31T23:57:40.120Z,21.21
